createdAt,value
2017-10-05T00:00:39.252Z,11.83
2017-10-05T00:01:19.840Z,11.88
2017-10-05T00:02:00.414Z,11.91
2017-10-05T00:02:40.995Z,11.9
2017-10-05T00:03:21.572Z,11.85
2017-10-05T00:04:02.158Z,11.86
2017-10-05T00:04:42.741Z,11.83
2017-10-05T00:05:23.319Z,11.85
2017-10-05T00:06:03.899Z,11.79
2017-10-05T00:06:44.482Z,11.82
2017-10-05T00:07:25.061Z,11.75
2017-10-05T00:08:05.648Z,11.75
2017-10-05T00:08:46.230Z,11.72
2017-10-05T00:09:26.813Z,11.76
2017-10-05T00:10:07.391Z,11.72
2017-10-05T00:10:47.974Z,11.7
2017-10-05T00:11:28.562Z,11.7
2017-10-05T00:12:09.143Z,11.75
2017-10-05T00:12:49.721Z,11.64
2017-10-05T00:13:30.309Z,11.67
2017-10-05T00:14:10.877Z,11.67
2017-10-05T00:14:51.468Z,11.69
2017-10-05T00:15:32.045Z,11.67
2017-10-05T00:16:12.625Z,11.67
2017-10-05T00:16:53.204Z,11.64
2017-10-05T00:17:33.786Z,11.67
2017-10-05T00:18:14.363Z,11.7
2017-10-05T00:18:54.935Z,11.62
2017-10-05T00:19:35.513Z,11.76
2017-10-05T00:20:16.094Z,11.72
2017-10-05T00:20:56.677Z,11.76
2017-10-05T00:21:37.254Z,11.76
2017-10-05T00:22:17.823Z,11.62
2017-10-05T00:22:58.401Z,11.62
2017-10-05T00:23:38.980Z,11.69
2017-10-05T00:24:19.562Z,11.69
2017-10-05T00:25:00.144Z,11.73
2017-10-05T00:25:40.719Z,11.76
2017-10-05T00:26:21.299Z,11.72
2017-10-05T00:27:01.879Z,11.7
2017-10-05T00:27:42.461Z,11.65
2017-10-05T00:28:23.042Z,11.75
2017-10-05T00:29:03.613Z,11.69
2017-10-05T00:31:16.458Z,11.67
2017-10-05T00:31:57.033Z,11.65
2017-10-05T00:32:37.623Z,11.72
2017-10-05T00:33:18.200Z,11.75
2017-10-05T00:33:58.778Z,11.65
2017-10-05T00:34:39.346Z,11.65
2017-10-05T00:35:19.921Z,11.76
2017-10-05T00:36:00.502Z,11.7
2017-10-05T00:36:41.079Z,11.72
2017-10-05T00:37:21.652Z,11.73
2017-10-05T00:38:02.238Z,11.73
2017-10-05T00:38:42.817Z,11.72
2017-10-05T00:39:23.397Z,11.76
2017-10-05T00:40:03.974Z,11.75
2017-10-05T00:40:44.554Z,11.73
2017-10-05T00:41:25.124Z,11.65
2017-10-05T00:42:05.702Z,11.7
2017-10-05T00:42:46.284Z,11.73
2017-10-05T00:43:26.866Z,11.72
2017-10-05T00:44:07.439Z,11.76
2017-10-05T00:44:48.018Z,11.67
2017-10-05T00:45:28.597Z,11.73
2017-10-05T00:46:09.178Z,11.78
2017-10-05T00:46:49.763Z,11.75
2017-10-05T00:47:30.354Z,11.7
2017-10-05T00:48:10.925Z,11.73
2017-10-05T00:48:51.511Z,11.72
2017-10-05T00:49:32.079Z,11.73
2017-10-05T00:50:12.662Z,11.69
2017-10-05T00:50:53.241Z,11.7
2017-10-05T00:51:33.822Z,11.69
2017-10-05T00:52:14.399Z,11.73
2017-10-05T00:52:54.979Z,11.76
2017-10-05T00:53:35.561Z,11.69
2017-10-05T00:54:16.144Z,11.7
2017-10-05T00:54:56.713Z,11.75
2017-10-05T00:55:37.299Z,11.69
2017-10-05T00:56:17.881Z,11.78
2017-10-05T00:56:58.451Z,11.79
2017-10-05T00:57:39.024Z,11.79
2017-10-05T00:58:19.603Z,11.78
2017-10-05T00:59:00.177Z,11.75
2017-10-05T00:59:40.759Z,11.79
2017-10-05T01:00:21.338Z,11.83
2017-10-05T01:01:01.918Z,11.78
2017-10-05T01:01:42.505Z,11.72
2017-10-05T01:02:23.085Z,11.7
2017-10-05T01:03:03.668Z,11.83
2017-10-05T01:03:44.252Z,11.79
2017-10-05T01:04:24.839Z,11.79
2017-10-05T01:05:05.410Z,11.78
2017-10-05T01:05:45.991Z,11.75
2017-10-05T01:06:26.570Z,11.73
2017-10-05T01:07:07.153Z,11.75
2017-10-05T01:07:47.735Z,11.7
2017-10-05T01:08:28.300Z,11.76
2017-10-05T01:09:08.888Z,11.78
2017-10-05T01:09:49.459Z,11.69
2017-10-05T01:10:30.039Z,11.78
2017-10-05T01:11:10.615Z,11.73
2017-10-05T01:11:51.198Z,11.7
2017-10-05T01:12:31.782Z,11.75
2017-10-05T01:13:12.360Z,11.72
2017-10-05T01:13:52.941Z,11.72
2017-10-05T01:14:33.524Z,11.79
2017-10-05T01:15:14.107Z,11.72
2017-10-05T01:15:54.686Z,11.76
2017-10-05T01:16:35.263Z,11.62
2017-10-05T01:17:15.848Z,11.67
2017-10-05T01:17:56.428Z,11.62
2017-10-05T01:18:37.010Z,11.52
2017-10-05T01:19:17.591Z,11.54
2017-10-05T01:19:58.172Z,11.51
2017-10-05T01:20:53.678Z,11.57
2017-10-05T01:21:34.254Z,11.49
2017-10-05T01:22:14.830Z,11.49
2017-10-05T01:22:55.412Z,11.54
2017-10-05T01:23:35.990Z,11.55
2017-10-05T01:24:16.558Z,11.49
2017-10-05T01:24:57.139Z,11.55
2017-10-05T01:25:37.721Z,11.58
2017-10-05T01:26:18.299Z,11.54
2017-10-05T01:26:58.874Z,11.49
2017-10-05T01:27:39.465Z,11.52
2017-10-05T01:28:20.042Z,11.58
2017-10-05T01:29:00.620Z,11.52
2017-10-05T01:29:41.194Z,11.49
2017-10-05T01:30:21.784Z,11.52
2017-10-05T01:31:02.368Z,11.49
2017-10-05T01:31:42.942Z,11.52
2017-10-05T01:32:23.524Z,11.52
2017-10-05T01:33:04.113Z,11.52
2017-10-05T01:33:44.693Z,11.55
2017-10-05T01:34:25.273Z,11.55
2017-10-05T01:35:05.838Z,11.52
2017-10-05T01:35:46.426Z,11.55
2017-10-05T01:36:27.001Z,11.54
2017-10-05T01:37:07.590Z,11.52
2017-10-05T01:37:48.173Z,11.54
2017-10-05T01:38:28.755Z,11.52
2017-10-05T01:39:09.331Z,11.54
2017-10-05T01:39:49.912Z,11.55
2017-10-05T01:40:30.490Z,11.52
2017-10-05T01:41:11.062Z,11.55
2017-10-05T01:41:51.639Z,11.54
2017-10-05T01:42:32.220Z,11.49
2017-10-05T01:43:12.808Z,11.52
2017-10-05T01:43:53.387Z,11.57
2017-10-05T01:44:33.967Z,11.58
2017-10-05T01:45:14.549Z,11.58
2017-10-05T01:45:55.118Z,11.67
2017-10-05T01:46:35.704Z,11.7
2017-10-05T01:47:16.279Z,11.62
2017-10-05T01:47:56.872Z,11.7
2017-10-05T01:48:37.460Z,11.72
2017-10-05T01:49:18.044Z,11.78
2017-10-05T01:49:58.620Z,11.67
2017-10-05T01:50:39.206Z,11.76
2017-10-05T01:51:19.789Z,11.65
2017-10-05T01:52:00.368Z,11.61
2017-10-05T01:52:40.942Z,11.65
2017-10-05T01:53:21.524Z,11.72
2017-10-05T01:54:02.116Z,11.7
2017-10-05T01:54:42.690Z,11.76
2017-10-05T01:55:23.270Z,11.67
2017-10-05T01:56:03.853Z,11.67
2017-10-05T01:56:44.424Z,11.75
2017-10-05T01:57:25.001Z,11.64
2017-10-05T01:58:05.586Z,11.62
2017-10-05T01:58:46.163Z,11.7
2017-10-05T01:59:26.747Z,11.67
2017-10-05T02:00:07.334Z,11.73
2017-10-05T02:00:47.913Z,11.7
2017-10-05T02:01:28.490Z,11.65
2017-10-05T02:02:09.073Z,11.69
2017-10-05T02:02:49.664Z,11.67
2017-10-05T02:03:30.241Z,11.61
2017-10-05T02:04:10.820Z,11.54
2017-10-05T02:04:51.400Z,11.55
2017-10-05T02:05:31.988Z,11.51
2017-10-05T02:06:12.580Z,11.51
2017-10-05T02:06:53.144Z,11.52
2017-10-05T02:07:33.725Z,11.55
2017-10-05T02:08:14.301Z,11.51
2017-10-05T02:08:54.882Z,11.54
2017-10-05T02:09:35.462Z,11.52
2017-10-05T02:10:16.043Z,11.55
2017-10-05T02:10:56.625Z,11.46
2017-10-05T02:11:37.213Z,11.62
2017-10-05T02:12:17.796Z,11.61
2017-10-05T02:12:58.368Z,11.55
2017-10-05T02:13:38.940Z,11.61
2017-10-05T02:14:19.517Z,11.62
2017-10-05T02:15:00.087Z,11.61
2017-10-05T02:15:40.659Z,11.65
2017-10-05T02:16:21.219Z,11.7
2017-10-05T02:17:01.801Z,11.64
2017-10-05T02:17:42.374Z,11.72
2017-10-05T02:18:22.944Z,11.69
2017-10-05T02:19:03.514Z,11.64
2017-10-05T02:19:44.097Z,11.61
2017-10-05T02:20:24.673Z,11.58
2017-10-05T02:21:05.256Z,11.7
2017-10-05T02:21:45.832Z,11.64
2017-10-05T02:22:26.404Z,11.58
2017-10-05T02:23:06.982Z,11.67
2017-10-05T02:23:47.557Z,11.62
2017-10-05T02:24:28.146Z,11.54
2017-10-05T02:25:08.718Z,11.51
2017-10-05T02:25:49.305Z,11.51
2017-10-05T02:26:29.882Z,11.52
2017-10-05T02:27:10.463Z,11.54
2017-10-05T02:27:51.039Z,11.54
2017-10-05T02:28:31.622Z,11.54
2017-10-05T02:29:12.187Z,11.55
2017-10-05T02:29:52.770Z,11.49
2017-10-05T02:30:33.351Z,11.54
2017-10-05T02:31:13.933Z,11.54
2017-10-05T02:31:54.514Z,11.43
2017-10-05T02:32:35.092Z,11.43
2017-10-05T02:33:15.674Z,11.43
2017-10-05T02:33:56.250Z,11.43
2017-10-05T02:34:36.828Z,11.4
2017-10-05T02:35:17.418Z,11.42
2017-10-05T02:35:57.992Z,11.33
2017-10-05T02:36:38.574Z,11.35
2017-10-05T02:37:19.155Z,11.42
2017-10-05T02:37:59.723Z,11.43
2017-10-05T02:38:40.305Z,11.36
2017-10-05T02:39:20.889Z,11.44
2017-10-05T02:40:01.467Z,11.51
2017-10-05T02:40:42.052Z,11.54
2017-10-05T02:41:22.631Z,11.52
2017-10-05T02:42:03.202Z,11.51
2017-10-05T02:42:43.773Z,11.57
2017-10-05T02:43:24.357Z,11.52
2017-10-05T02:44:04.931Z,11.47
2017-10-05T02:44:45.516Z,11.57
2017-10-05T02:45:26.099Z,11.51
2017-10-05T02:46:06.671Z,11.47
2017-10-05T02:46:47.235Z,11.52
2017-10-05T02:47:27.827Z,11.52
2017-10-05T02:48:08.407Z,11.61
2017-10-05T02:48:48.997Z,11.47
2017-10-05T02:49:29.579Z,11.52
2017-10-05T02:50:25.942Z,11.55
2017-10-05T02:51:06.522Z,11.52
2017-10-05T02:51:47.100Z,11.57
2017-10-05T02:52:27.684Z,11.57
2017-10-05T02:53:08.270Z,11.51
2017-10-05T02:53:48.846Z,11.51
2017-10-05T02:54:29.572Z,11.49
2017-10-05T02:55:10.148Z,11.44
2017-10-05T02:55:50.728Z,11.54
2017-10-05T02:56:31.314Z,11.52
2017-10-05T02:57:11.906Z,11.54
2017-10-05T02:57:52.483Z,11.55
2017-10-05T02:58:33.062Z,11.54
2017-10-05T02:59:13.642Z,11.37
2017-10-05T02:59:54.227Z,11.46
2017-10-05T03:00:34.814Z,11.42
2017-10-05T03:01:15.396Z,11.46
2017-10-05T03:01:55.976Z,11.43
2017-10-05T03:02:36.562Z,11.37
2017-10-05T03:03:17.138Z,11.4
2017-10-05T03:03:57.713Z,11.44
2017-10-05T03:04:38.295Z,11.44
2017-10-05T03:05:18.867Z,11.44
2017-10-05T03:05:59.443Z,11.4
2017-10-05T03:06:40.019Z,11.43
2017-10-05T03:07:20.603Z,11.43
2017-10-05T03:08:01.181Z,11.42
2017-10-05T03:08:41.754Z,11.46
2017-10-05T03:09:22.330Z,11.44
2017-10-05T03:10:02.903Z,11.44
2017-10-05T03:10:43.481Z,11.43
2017-10-05T03:11:24.049Z,11.43
2017-10-05T03:12:04.619Z,11.39
2017-10-05T03:12:45.201Z,11.43
2017-10-05T03:13:25.787Z,11.4
2017-10-05T03:14:21.218Z,11.4
2017-10-05T03:15:01.918Z,11.44
2017-10-05T03:15:42.594Z,11.46
2017-10-05T03:16:23.186Z,11.4
2017-10-05T03:17:03.780Z,11.51
2017-10-05T03:17:44.360Z,11.49
2017-10-05T03:18:24.946Z,11.51
2017-10-05T03:19:05.523Z,11.51
2017-10-05T03:19:46.105Z,11.49
2017-10-05T03:20:26.687Z,11.6
2017-10-05T03:21:07.256Z,11.64
2017-10-05T03:21:47.828Z,11.72
2017-10-05T03:22:28.406Z,11.75
2017-10-05T03:23:08.984Z,11.7
2017-10-05T03:23:49.560Z,11.72
2017-10-05T03:24:30.142Z,11.79
2017-10-05T03:25:10.726Z,11.83
2017-10-05T03:25:51.302Z,11.83
2017-10-05T03:26:38.439Z,11.86
2017-10-05T03:27:19.016Z,11.85
2017-10-05T03:27:59.598Z,11.9
2017-10-05T03:28:40.178Z,11.98
2017-10-05T03:29:20.763Z,11.99
2017-10-05T03:30:01.338Z,12.04
2017-10-05T03:30:41.908Z,12.05
2017-10-05T03:31:22.494Z,12.14
2017-10-05T03:32:03.074Z,12.16
2017-10-05T03:32:43.652Z,12.12
2017-10-05T03:33:24.237Z,12.27
2017-10-05T03:34:04.821Z,12.24
2017-10-05T03:34:45.396Z,12.23
2017-10-05T03:35:25.970Z,12.29
2017-10-05T03:36:06.541Z,12.35
2017-10-05T03:36:47.131Z,12.39
2017-10-05T03:37:27.713Z,12.39
2017-10-05T03:38:08.290Z,12.34
2017-10-05T03:38:48.869Z,12.34
2017-10-05T03:39:29.448Z,12.32
2017-10-05T03:40:10.023Z,12.37
2017-10-05T03:40:50.604Z,12.39
2017-10-05T03:41:31.187Z,12.39
2017-10-05T03:42:11.763Z,12.45
2017-10-05T03:42:52.346Z,12.38
2017-10-05T03:43:32.928Z,12.39
2017-10-05T03:44:13.510Z,12.46
2017-10-05T03:44:54.084Z,12.46
2017-10-05T03:45:34.669Z,12.45
2017-10-05T03:46:15.242Z,12.5
2017-10-05T03:46:55.830Z,12.46
2017-10-05T03:47:51.328Z,12.42
2017-10-05T03:48:31.914Z,12.53
2017-10-05T03:49:12.497Z,12.59
2017-10-05T03:49:53.086Z,12.62
2017-10-05T03:50:34.180Z,12.53
2017-10-05T03:51:14.455Z,12.54
2017-10-05T03:51:55.048Z,12.54
2017-10-05T03:52:35.617Z,12.59
2017-10-05T03:53:16.198Z,12.54
2017-10-05T03:53:56.787Z,12.62
2017-10-05T03:54:47.936Z,12.62
2017-10-05T03:55:28.520Z,12.64
2017-10-05T03:56:09.103Z,12.62
2017-10-05T03:56:49.681Z,12.71
2017-10-05T03:57:30.257Z,12.64
2017-10-05T03:58:10.836Z,12.67
2017-10-05T03:58:51.408Z,12.71
2017-10-05T03:59:31.982Z,12.7
2017-10-05T04:00:12.572Z,12.7
2017-10-05T04:00:53.155Z,12.65
2017-10-05T04:01:33.735Z,12.68
2017-10-05T04:02:14.307Z,12.72
2017-10-05T04:02:54.885Z,12.7
2017-10-05T04:03:35.468Z,12.64
2017-10-05T04:04:16.044Z,12.64
2017-10-05T04:04:56.628Z,12.59
2017-10-05T04:05:37.208Z,12.72
2017-10-05T04:06:17.795Z,12.7
2017-10-05T04:06:58.368Z,12.72
2017-10-05T04:07:38.951Z,12.7
2017-10-05T04:08:19.542Z,12.65
2017-10-05T04:09:00.119Z,12.57
2017-10-05T04:09:40.703Z,12.62
2017-10-05T04:10:21.284Z,12.6
2017-10-05T04:11:01.855Z,12.65
2017-10-05T04:11:42.438Z,12.72
2017-10-05T04:12:23.001Z,12.71
2017-10-05T04:13:03.584Z,12.74
2017-10-05T04:13:44.168Z,12.57
2017-10-05T04:14:24.747Z,12.64
2017-10-05T04:15:05.316Z,12.68
2017-10-05T04:15:45.897Z,12.68
2017-10-05T04:16:26.472Z,12.71
2017-10-05T04:17:07.057Z,12.64
2017-10-05T04:18:44.435Z,12.68
2017-10-05T04:19:25.002Z,12.7
2017-10-05T04:21:02.335Z,12.57
2017-10-05T04:21:42.923Z,12.6
2017-10-05T04:22:23.507Z,12.65
2017-10-05T04:23:04.090Z,12.59
2017-10-05T04:23:44.678Z,12.6
2017-10-05T04:24:25.257Z,12.59
2017-10-05T04:25:05.858Z,12.65
2017-10-05T04:25:46.441Z,12.68
2017-10-05T04:26:27.005Z,12.59
2017-10-05T04:28:04.390Z,12.6
2017-10-05T04:28:44.974Z,12.52
2017-10-05T04:29:25.550Z,12.5
2017-10-05T04:30:06.128Z,12.46
2017-10-05T04:30:46.709Z,12.41
2017-10-05T04:31:27.285Z,12.31
2017-10-05T04:32:07.861Z,12.31
2017-10-05T04:32:48.423Z,12.27
2017-10-05T04:33:28.998Z,12.27
2017-10-05T04:34:09.569Z,12.28
2017-10-05T04:34:50.145Z,12.19
2017-10-05T04:35:30.723Z,12.24
2017-10-05T04:36:11.304Z,12.19
2017-10-05T04:36:51.876Z,12.16
2017-10-05T04:37:32.459Z,12.17
2017-10-05T04:38:13.032Z,12.12
2017-10-05T04:38:53.606Z,12.16
2017-10-05T04:39:34.183Z,12.12
2017-10-05T04:40:14.763Z,12.17
2017-10-05T04:40:55.351Z,12.17
2017-10-05T04:41:35.932Z,12.19
2017-10-05T04:42:16.520Z,12.05
2017-10-05T04:42:57.082Z,12.05
2017-10-05T04:43:37.666Z,11.98
2017-10-05T04:44:18.248Z,11.98
2017-10-05T04:44:58.823Z,12.02
2017-10-05T04:45:39.407Z,12.01
2017-10-05T04:46:19.976Z,11.99
2017-10-05T04:48:07.501Z,11.96
2017-10-05T04:48:48.073Z,12.04
2017-10-05T04:49:28.649Z,12.02
2017-10-05T04:50:09.227Z,11.99
2017-10-05T04:50:49.803Z,12.07
2017-10-05T04:51:30.379Z,12.02
2017-10-05T04:52:10.955Z,12.01
2017-10-05T04:52:51.535Z,11.99
2017-10-05T04:53:32.111Z,12.04
2017-10-05T04:54:12.694Z,12.09
2017-10-05T04:54:53.272Z,12.02
2017-10-05T04:55:33.853Z,12.05
2017-10-05T04:56:14.432Z,12.01
2017-10-05T04:56:55.004Z,12.07
2017-10-05T04:57:35.579Z,12.07
2017-10-05T04:58:16.166Z,12.02
2017-10-05T04:58:56.745Z,11.98
2017-10-05T04:59:37.336Z,11.95
2017-10-05T05:00:17.914Z,11.91
2017-10-05T05:00:58.485Z,11.95
2017-10-05T05:01:39.067Z,11.88
2017-10-05T05:02:19.639Z,11.88
2017-10-05T05:03:00.220Z,11.88
2017-10-05T05:03:40.796Z,11.9
2017-10-05T05:04:21.381Z,11.79
2017-10-05T05:05:01.958Z,11.88
2017-10-05T05:05:42.538Z,11.8
2017-10-05T05:06:23.110Z,11.83
2017-10-05T05:07:03.704Z,11.78
2017-10-05T05:07:44.271Z,11.83
2017-10-05T05:08:24.859Z,11.78
2017-10-05T05:09:05.442Z,11.7
2017-10-05T05:09:46.016Z,11.8
2017-10-05T05:10:26.592Z,11.8
2017-10-05T05:11:07.173Z,11.8
2017-10-05T05:11:47.752Z,11.82
2017-10-05T05:12:28.340Z,11.8
2017-10-05T05:13:23.844Z,11.82
2017-10-05T05:14:04.427Z,11.7
2017-10-05T05:14:44.996Z,11.8
2017-10-05T05:15:25.571Z,11.83
2017-10-05T05:16:06.155Z,11.82
2017-10-05T05:16:46.731Z,11.9
2017-10-05T05:17:27.307Z,11.91
2017-10-05T05:18:07.888Z,11.91
2017-10-05T05:18:48.468Z,11.9
2017-10-05T05:19:29.047Z,11.88
2017-10-05T05:20:09.640Z,11.83
2017-10-05T05:20:50.216Z,11.83
2017-10-05T05:21:30.792Z,11.85
2017-10-05T05:23:23.418Z,11.83
2017-10-05T05:24:04.001Z,11.9
2017-10-05T05:24:44.577Z,11.94
2017-10-05T05:25:25.162Z,11.86
2017-10-05T05:26:05.743Z,11.88
2017-10-05T05:26:46.314Z,11.85
2017-10-05T05:27:26.891Z,11.88
2017-10-05T05:28:07.477Z,11.91
2017-10-05T05:28:48.059Z,11.88
2017-10-05T05:29:43.181Z,11.88
2017-10-05T05:30:23.758Z,11.9
2017-10-05T05:31:04.338Z,11.85
2017-10-05T05:31:44.911Z,11.79
2017-10-05T05:32:25.491Z,11.8
2017-10-05T05:33:06.070Z,11.79
2017-10-05T05:33:46.630Z,11.76
2017-10-05T05:34:27.204Z,11.79
2017-10-05T05:35:07.794Z,11.73
2017-10-05T05:35:48.371Z,11.75
2017-10-05T05:36:28.945Z,11.79
2017-10-05T05:37:09.525Z,11.9
2017-10-05T05:37:50.105Z,11.95
2017-10-05T05:38:30.678Z,11.88
2017-10-05T05:39:11.269Z,11.86
2017-10-05T05:39:51.851Z,11.9
2017-10-05T05:40:32.431Z,11.85
2017-10-05T05:41:13.010Z,11.95
2017-10-05T05:41:53.588Z,11.96
2017-10-05T05:42:34.172Z,11.98
2017-10-05T05:43:14.746Z,12.04
2017-10-05T05:43:55.323Z,12.02
2017-10-05T05:44:35.906Z,12.02
2017-10-05T05:45:16.472Z,12.16
2017-10-05T05:45:57.044Z,12.19
2017-10-05T05:46:37.628Z,12.19
2017-10-05T05:47:18.209Z,12.27
2017-10-05T05:47:58.799Z,12.31
2017-10-05T05:48:39.378Z,12.35
2017-10-05T05:49:19.963Z,12.46
2017-10-05T05:50:00.538Z,12.46
2017-10-05T05:50:41.121Z,12.53
2017-10-05T05:51:21.700Z,12.45
2017-10-05T05:52:02.271Z,12.59
2017-10-05T05:52:42.859Z,12.6
2017-10-05T05:53:23.440Z,12.47
2017-10-05T05:54:04.014Z,12.47
2017-10-05T05:54:44.596Z,12.5
2017-10-05T05:55:25.166Z,12.54
2017-10-05T05:56:05.752Z,12.54
2017-10-05T05:56:46.323Z,12.53
2017-10-05T05:57:26.906Z,12.54
2017-10-05T05:58:07.490Z,12.56
2017-10-05T05:58:48.066Z,12.56
2017-10-05T05:59:28.641Z,12.53
2017-10-05T06:00:09.238Z,12.71
2017-10-05T06:00:49.818Z,12.67
2017-10-05T06:01:30.398Z,12.75
2017-10-05T06:02:10.987Z,12.86
2017-10-05T06:02:51.559Z,13.01
2017-10-05T06:03:32.166Z,13
2017-10-05T06:04:12.745Z,13.05
2017-10-05T06:04:53.331Z,13.1
2017-10-05T06:05:33.913Z,13.23
2017-10-05T06:06:14.496Z,13.19
2017-10-05T06:06:55.081Z,13.32
2017-10-05T06:07:35.662Z,13.36
2017-10-05T06:08:16.242Z,13.38
2017-10-05T06:08:56.823Z,13.54
2017-10-05T06:09:37.397Z,13.52
2017-10-05T06:10:17.968Z,13.59
2017-10-05T06:10:58.567Z,13.48
2017-10-05T06:11:54.885Z,13.67
2017-10-05T06:12:35.466Z,13.71
2017-10-05T06:13:16.043Z,13.69
2017-10-05T06:13:56.627Z,13.75
2017-10-05T06:14:37.198Z,13.71
2017-10-05T06:15:17.785Z,13.75
2017-10-05T06:15:58.363Z,13.81
2017-10-05T06:16:38.943Z,13.79
2017-10-05T06:17:21.584Z,13.82
2017-10-05T06:18:02.164Z,13.81
2017-10-05T06:18:42.742Z,13.81
2017-10-05T06:19:23.307Z,13.91
2017-10-05T06:20:03.891Z,13.87
2017-10-05T06:20:44.470Z,13.82
2017-10-05T06:21:25.055Z,13.81
2017-10-05T06:22:05.632Z,13.82
2017-10-05T06:22:46.206Z,13.81
2017-10-05T06:23:26.789Z,13.71
2017-10-05T06:24:07.367Z,13.64
2017-10-05T06:24:47.944Z,13.67
2017-10-05T06:25:28.526Z,13.75
2017-10-05T06:26:09.105Z,13.69
2017-10-05T06:26:49.683Z,13.77
2017-10-05T06:27:30.265Z,13.64
2017-10-05T06:28:10.841Z,13.69
2017-10-05T06:28:51.428Z,13.77
2017-10-05T06:29:32.018Z,13.78
2017-10-05T06:30:12.594Z,13.84
2017-10-05T06:30:53.182Z,13.89
2017-10-05T06:31:33.756Z,13.96
2017-10-05T06:32:14.344Z,14.02
2017-10-05T06:32:54.920Z,14.1
2017-10-05T06:33:35.495Z,14.24
2017-10-05T06:34:16.075Z,14.25
2017-10-05T06:34:56.647Z,14.33
2017-10-05T06:35:37.231Z,14.43
2017-10-05T06:36:17.813Z,14.43
2017-10-05T06:36:58.392Z,14.51
2017-10-05T06:37:38.969Z,14.54
2017-10-05T06:38:19.550Z,14.62
2017-10-05T06:39:00.128Z,14.55
2017-10-05T06:39:40.702Z,14.51
2017-10-05T06:40:21.277Z,14.5
2017-10-05T06:41:01.844Z,14.55
2017-10-05T06:41:42.418Z,14.61
2017-10-05T06:42:23.002Z,14.61
2017-10-05T06:43:03.581Z,14.52
2017-10-05T06:43:44.168Z,14.64
2017-10-05T06:44:24.748Z,14.68
2017-10-05T06:45:05.328Z,14.83
2017-10-05T06:45:45.903Z,14.91
2017-10-05T06:46:26.483Z,14.94
2017-10-05T06:47:07.062Z,14.91
2017-10-05T06:47:47.633Z,14.99
2017-10-05T06:48:28.210Z,15.1
2017-10-05T06:49:08.779Z,15.14
2017-10-05T06:49:49.357Z,15.21
2017-10-05T06:50:29.939Z,15.28
2017-10-05T06:51:10.521Z,15.21
2017-10-05T06:51:51.101Z,15.14
2017-10-05T06:52:31.681Z,15.34
2017-10-05T06:53:12.266Z,15.41
2017-10-05T06:53:52.837Z,15.39
2017-10-05T06:54:33.404Z,15.34
2017-10-05T06:55:13.990Z,15.36
2017-10-05T06:55:54.572Z,15.43
2017-10-05T06:56:35.150Z,15.47
2017-10-05T06:57:15.720Z,15.43
2017-10-05T06:57:56.308Z,15.43
2017-10-05T06:58:36.890Z,15.23
2017-10-05T06:59:18.195Z,15.21
2017-10-05T06:59:58.777Z,15.14
2017-10-05T07:00:39.356Z,15.23
2017-10-05T07:01:19.948Z,15.16
2017-10-05T07:02:00.528Z,15.09
2017-10-05T07:02:41.107Z,14.94
2017-10-05T07:03:21.676Z,14.89
2017-10-05T07:04:02.255Z,14.81
2017-10-05T07:04:42.829Z,14.95
2017-10-05T07:05:24.010Z,15.62
2017-10-05T07:06:04.583Z,16.76
2017-10-05T07:06:45.161Z,17.56
2017-10-05T07:07:25.746Z,17.63
2017-10-05T07:08:06.431Z,17.52
2017-10-05T07:08:47.040Z,17.4
2017-10-05T07:09:27.592Z,17.36
2017-10-05T07:10:10.072Z,17.43
2017-10-05T07:10:50.592Z,17.31
2017-10-05T07:11:31.174Z,17.08
2017-10-05T07:12:11.759Z,18.12
2017-10-05T07:12:52.346Z,19.1
2017-10-05T07:13:32.925Z,20.11
2017-10-05T07:14:13.509Z,20.52
2017-10-05T07:14:54.086Z,20.76
2017-10-05T07:15:34.670Z,21.59
2017-10-05T07:16:15.330Z,22.12
2017-10-05T07:16:55.916Z,22.47
2017-10-05T07:17:36.494Z,22.7
2017-10-05T07:18:17.072Z,23.09
2017-10-05T07:18:57.647Z,23.39
2017-10-05T07:19:38.227Z,23.72
2017-10-05T07:20:18.807Z,23.78
2017-10-05T07:20:59.397Z,23.97
2017-10-05T07:21:39.978Z,24.35
2017-10-05T07:22:20.566Z,24.73
2017-10-05T07:23:01.150Z,24.76
2017-10-05T07:28:11.047Z,25.06
2017-10-05T07:28:51.640Z,24.88
2017-10-05T07:29:32.217Z,24.8
2017-10-05T07:30:12.802Z,24.68
2017-10-05T07:30:53.384Z,24.06
2017-10-05T07:31:33.964Z,24.06
2017-10-05T07:32:14.535Z,24.09
2017-10-05T07:32:55.120Z,24.35
2017-10-05T07:33:35.711Z,24.68
2017-10-05T07:34:16.289Z,25.28
2017-10-05T07:34:56.869Z,24.81
2017-10-05T07:35:37.445Z,25.08
2017-10-05T07:36:18.033Z,25.24
2017-10-05T07:36:58.619Z,25.33
2017-10-05T07:37:39.204Z,25.57
2017-10-05T07:38:35.399Z,25.51
2017-10-05T07:39:15.980Z,25.13
2017-10-05T07:39:56.564Z,25.09
2017-10-05T07:40:37.155Z,25.15
2017-10-05T07:41:17.748Z,25.09
2017-10-05T07:41:58.337Z,24.99
2017-10-05T07:42:38.923Z,25.27
2017-10-05T07:43:19.513Z,25.45
2017-10-05T07:44:00.107Z,25.69
2017-10-05T07:44:40.698Z,25.42
2017-10-05T07:45:21.286Z,25.46
2017-10-05T07:46:01.877Z,25.18
2017-10-05T07:46:42.463Z,24.35
2017-10-05T07:47:23.056Z,24.16
2017-10-05T07:48:03.627Z,24.2
2017-10-05T07:48:44.209Z,24.27
2017-10-05T07:49:24.791Z,24.5
2017-10-05T07:50:05.377Z,24.18
2017-10-05T07:50:45.972Z,24.2
2017-10-05T07:51:26.539Z,24.13
2017-10-05T07:52:07.129Z,24.37
2017-10-05T07:52:47.716Z,24.77
2017-10-05T07:53:28.304Z,24.95
2017-10-05T07:54:08.892Z,25.3
2017-10-05T07:54:49.481Z,25.46
2017-10-05T07:55:30.059Z,25.39
2017-10-05T07:56:10.648Z,25.35
2017-10-05T07:56:51.244Z,25.87
2017-10-05T07:57:31.830Z,26.23
2017-10-05T07:58:12.418Z,26.33
2017-10-05T07:58:53.000Z,26.72
2017-10-05T07:59:33.589Z,26.97
2017-10-05T08:00:14.189Z,27.02
2017-10-05T08:00:54.783Z,27.14
2017-10-05T08:01:35.377Z,26.82
2017-10-05T08:02:15.962Z,26.95
2017-10-05T08:02:56.557Z,26.97
2017-10-05T08:03:37.147Z,27.25
2017-10-05T08:04:17.734Z,27.22
2017-10-05T08:04:58.331Z,26.92
2017-10-05T08:05:38.915Z,27.18
2017-10-05T08:06:19.509Z,27.07
2017-10-05T08:07:00.101Z,26.95
2017-10-05T08:08:55.170Z,26.32
2017-10-05T08:09:35.752Z,26.63
2017-10-05T08:10:16.347Z,26.91
2017-10-05T08:10:56.946Z,27.51
2017-10-05T08:11:37.534Z,27.46
2017-10-05T08:12:18.123Z,27.1
2017-10-05T08:12:58.710Z,27.04
2017-10-05T08:13:39.305Z,27.21
2017-10-05T08:15:31.948Z,25.98
2017-10-05T08:16:12.541Z,25.75
2017-10-05T08:16:53.131Z,25.77
2017-10-05T08:17:33.716Z,26.18
2017-10-05T08:18:14.301Z,26.2
2017-10-05T08:18:54.893Z,26.2
2017-10-05T08:20:47.550Z,26.95
2017-10-05T08:21:28.141Z,27.46
2017-10-05T08:22:08.726Z,27.96
2017-10-05T08:22:49.324Z,28.17
2017-10-05T08:23:29.913Z,27.65
2017-10-05T08:24:10.509Z,26.85
2017-10-05T08:24:51.098Z,26.33
2017-10-05T08:25:31.700Z,26.35
2017-10-05T08:26:12.295Z,26.97
2017-10-05T08:26:52.880Z,26.99
2017-10-05T08:27:33.471Z,26.82
2017-10-05T08:28:14.045Z,26.28
2017-10-05T08:28:54.640Z,26.39
2017-10-05T08:29:35.235Z,26.48
2017-10-05T08:30:15.819Z,26.55
2017-10-05T08:30:56.414Z,27.21
2017-10-05T08:31:37.003Z,27.55
2017-10-05T08:32:17.578Z,28.02
2017-10-05T08:32:58.164Z,27.6
2017-10-05T08:33:38.757Z,27.55
2017-10-05T08:34:19.335Z,26.82
2017-10-05T08:34:59.923Z,27.03
2017-10-05T08:35:40.517Z,26.92
2017-10-05T08:36:21.105Z,27.22
2017-10-05T08:37:01.706Z,26.97
2017-10-05T08:37:42.286Z,26.36
2017-10-05T08:38:22.876Z,26.45
2017-10-05T08:39:03.467Z,26.02
2017-10-05T08:39:44.056Z,26.63
2017-10-05T08:40:24.641Z,26.26
2017-10-05T08:41:05.229Z,26.57
2017-10-05T08:41:45.824Z,27.1
2017-10-05T08:42:26.416Z,26.77
2017-10-05T08:43:07.005Z,26.6
2017-10-05T08:43:47.595Z,26.89
2017-10-05T08:44:28.193Z,27.37
2017-10-05T08:45:08.808Z,27.9
2017-10-05T08:45:49.393Z,28.04
2017-10-05T08:46:29.985Z,27.59
2017-10-05T08:47:10.577Z,27.47
2017-10-05T08:47:51.161Z,27.81
2017-10-05T08:48:31.755Z,27.72
2017-10-05T08:49:12.355Z,27.18
2017-10-05T08:49:52.928Z,27.46
2017-10-05T08:50:33.527Z,27.18
2017-10-05T08:51:14.123Z,27.46
2017-10-05T08:51:54.730Z,26.94
2017-10-05T08:52:35.308Z,27.18
2017-10-05T08:53:15.898Z,25.98
2017-10-05T08:53:56.487Z,25.92
2017-10-05T08:54:37.077Z,26.05
2017-10-05T08:55:17.671Z,26.15
2017-10-05T08:55:58.273Z,26.7
2017-10-05T08:56:38.858Z,26.84
2017-10-05T08:57:19.442Z,27.02
2017-10-05T08:58:00.028Z,26.65
2017-10-05T08:58:40.621Z,26.55
2017-10-05T08:59:21.219Z,26.36
2017-10-05T09:00:01.808Z,26.43
2017-10-05T09:00:42.404Z,26.66
2017-10-05T09:01:23.009Z,27.24
2017-10-05T09:02:03.595Z,27.03